Keytesville, Missouri
Current Conditions -  °F | °C
As of 9:15 AM on Thursday 27 Nov 2014 (Local Time) from KMHL Reporting Station
Overcast Overcast  
Wind Chill: 22°   Ceiling: 1600
Heat Index: 30°   Visibility: 7mi
Dew Point: 25°   Wind: 9mph
Humidity: 80%   Direction: 350°N
Pressure: 30.52"   Gusts: NA
Location:  39.43°N, 92.94°W
Report Text: KMHL 271515Z AUTO 35008KT 7SM OVC016 M01/M04 A3052 RMK AO2
Loading
Personal Weather Stations






























Interactive Weather Map New forecast layout! Learn more

10-Day Weather Forecast

Advertisements
Track Severe Weather on mobile